Time;durP1;ratioP1;P1;durP2;ratioP2;P2;SDS_P1;SDS_P2;PMS_P1;PMS_P2;Temp;Humidity;BMP_temperature;BMP_pressure;BME280_temperature;BME280_humidity;BME280_pressure;Samples;Min_cycle;Max_cycle;Signal;HPM_P1;HPM_P2
2023/06/13 00:00:35;;;;;;;10.52;6.65;;;;;;;;;;5000840;28;20038;-62
2023/06/13 00:03:02;;;;;;;11.55;6.50;;;;;;;;;;5004592;28;20033;-62
2023/06/13 00:05:28;;;;;;;9.90;6.72;;;;;;;;;;5001574;28;20494;-62
2023/06/13 00:07:54;;;;;;;10.93;6.70;;;;;;;;;;5001213;28;20412;-61
2023/06/13 00:10:20;;;;;;;12.10;6.93;;;;;;;;;;5006916;28;20049;-61
2023/06/13 00:12:49;;;;;;;10.77;6.40;;;;;;;;;;5006657;28;20030;-61
2023/06/13 00:15:15;;;;;;;11.50;6.30;;;;;;;;;;5008615;28;20052;-61
2023/06/13 00:17:42;;;;;;;10.68;6.68;;;;;;;;;;5009500;28;20050;-60
2023/06/13 00:20:09;;;;;;;10.55;6.45;;;;;;;;;;5010562;28;20050;-61
2023/06/13 00:22:35;;;;;;;11.07;5.95;;;;;;;;;;5001413;28;20041;-61
2023/06/13 00:25:02;;;;;;;13.63;6.05;;;;;;;;;;5006669;28;20430;-61
2023/06/13 00:27:30;;;;;;;9.02;6.32;;;;;;;;;;5020090;28;20033;-61
2023/06/13 00:29:56;;;;;;;12.32;5.95;;;;;;;;;;5004520;28;20054;-61
2023/06/13 00:32:23;;;;;;;10.90;6.65;;;;;;;;;;5008327;28;20610;-61
2023/06/13 00:34:49;;;;;;;8.75;6.00;;;;;;;;;;5013495;28;20379;-61
2023/06/13 00:37:16;;;;;;;11.45;6.40;;;;;;;;;;5007359;28;20029;-61
2023/06/13 00:39:43;;;;;;;9.40;6.18;;;;;;;;;;5019938;28;20042;-61
2023/06/13 00:42:10;;;;;;;10.38;6.07;;;;;;;;;;5008777;28;20033;-61
2023/06/13 00:44:36;;;;;;;10.77;6.45;;;;;;;;;;5022417;28;20061;-60
2023/06/13 00:47:03;;;;;;;9.93;6.25;;;;;;;;;;4995124;28;20033;-62
2023/06/13 00:49:30;;;;;;;10.25;6.30;;;;;;;;;;5011268;28;20046;-62
2023/06/13 00:52:04;;;;;;;10.25;6.00;;;;;;;;;;5002289;28;20029;-62
2023/06/13 00:54:34;;;;;;;9.98;5.72;;;;;;;;;;5008574;28;20042;-62
2023/06/13 00:57:01;;;;;;;10.90;5.78;;;;;;;;;;4999944;28;20039;-61
2023/06/13 00:59:28;;;;;;;12.35;6.43;;;;;;;;;;5016733;28;20488;-61
2023/06/13 01:01:56;;;;;;;14.25;7.00;;;;;;;;;;5007355;28;20045;-60
2023/06/13 01:04:22;;;;;;;11.85;6.57;;;;;;;;;;5010143;28;20402;-61
2023/06/13 01:06:49;;;;;;;13.40;6.65;;;;;;;;;;5015393;28;20479;-61
2023/06/13 01:09:17;;;;;;;8.40;5.82;;;;;;;;;;5010989;28;20503;-61
2023/06/13 01:12:11;;;;;;;10.35;6.45;;;;;;;;;;4998182;28;20515;-61
2023/06/13 01:14:50;;;;;;;8.70;5.78;;;;;;;;;;5010432;28;20089;-62
2023/06/13 01:17:27;;;;;;;11.55;6.00;;;;;;;;;;5026882;28;20045;-61
2023/06/13 01:19:58;;;;;;;11.93;6.32;;;;;;;;;;5008676;28;20034;-62
2023/06/13 01:22:52;;;;;;;10.00;5.80;;;;;;;;;;5012944;28;20037;-62
2023/06/13 01:25:37;;;;;;;8.70;6.05;;;;;;;;;;5007975;28;20030;-62
2023/06/13 01:28:06;;;;;;;11.50;5.97;;;;;;;;;;5014883;28;20036;-62
2023/06/13 01:30:34;;;;;;;9.15;5.53;;;;;;;;;;4991204;28;20406;-62
2023/06/13 01:33:02;;;;;;;7.60;5.50;;;;;;;;;;5008006;28;20384;-61
2023/06/13 01:35:30;;;;;;;9.07;5.55;;;;;;;;;;5012533;28;20040;-62
2023/06/13 01:37:56;;;;;;;9.93;5.60;;;;;;;;;;5012291;28;20049;-62
2023/06/13 01:40:22;;;;;;;8.82;5.68;;;;;;;;;;5007194;28;20029;-61
2023/06/13 01:42:49;;;;;;;9.93;5.85;;;;;;;;;;5012122;28;20026;-61
2023/06/13 01:45:15;;;;;;;9.60;5.57;;;;;;;;;;5015159;28;20038;-61
2023/06/13 01:47:51;;;;;;;7.30;5.43;;;;;;;;;;5012060;28;20049;-62
2023/06/13 01:50:32;;;;;;;9.73;5.75;;;;;;;;;;5007014;28;20053;-61
2023/06/13 01:52:59;;;;;;;12.80;5.40;;;;;;;;;;5016845;28;20041;-61
2023/06/13 01:55:49;;;;;;;8.02;5.55;;;;;;;;;;5011215;28;20057;-61
2023/06/13 01:58:46;;;;;;;11.57;5.35;;;;;;;;;;5008101;28;20525;-61
2023/06/13 02:01:13;;;;;;;11.35;5.93;;;;;;;;;;4986815;28;20045;-61
2023/06/13 02:03:40;;;;;;;9.68;5.10;;;;;;;;;;5012687;28;20487;-61
2023/06/13 02:06:06;;;;;;;8.95;5.35;;;;;;;;;;5009192;28;20030;-61
2023/06/13 02:08:33;;;;;;;9.38;5.45;;;;;;;;;;5013562;28;20050;-61
2023/06/13 02:11:00;;;;;;;9.77;5.63;;;;;;;;;;5014109;28;20034;-61
2023/06/13 02:13:26;;;;;;;10.90;5.80;;;;;;;;;;5017750;28;20036;-61
2023/06/13 02:15:52;;;;;;;9.65;5.55;;;;;;;;;;5010970;28;20042;-60
2023/06/13 02:18:18;;;;;;;10.23;5.57;;;;;;;;;;5031344;28;20045;-60
2023/06/13 02:20:44;;;;;;;8.63;5.45;;;;;;;;;;5012493;28;20034;-60
2023/06/13 02:23:12;;;;;;;14.95;6.88;;;;;;;;;;5012063;28;20524;-60
2023/06/13 02:25:40;;;;;;;8.93;6.10;;;;;;;;;;4997928;28;20042;-60
2023/06/13 02:28:06;;;;;;;13.07;6.30;;;;;;;;;;4993844;28;20030;-61
2023/06/13 02:30:32;;;;;;;9.88;6.47;;;;;;;;;;5017988;28;20392;-61
2023/06/13 02:33:01;;;;;;;9.07;5.78;;;;;;;;;;5007979;28;20495;-61
2023/06/13 02:35:27;;;;;;;10.38;5.45;;;;;;;;;;5015663;28;20053;-60
2023/06/13 02:37:53;;;;;;;10.20;5.40;;;;;;;;;;5027743;28;20045;-60
2023/06/13 02:40:23;;;;;;;7.93;5.10;;;;;;;;;;5011393;28;20042;-60
2023/06/13 02:42:50;;;;;;;12.35;5.68;;;;;;;;;;5012366;28;20037;-60
2023/06/13 02:45:16;;;;;;;9.55;5.22;;;;;;;;;;5006138;28;20052;-61
2023/06/13 02:47:43;;;;;;;8.40;5.20;;;;;;;;;;5007981;28;20034;-62
2023/06/13 02:50:09;;;;;;;9.95;5.20;;;;;;;;;;5012257;28;20030;-61
2023/06/13 02:52:37;;;;;;;10.95;5.10;;;;;;;;;;5012468;28;20069;-61
2023/06/13 02:55:08;;;;;;;8.52;5.45;;;;;;;;;;4995597;28;20499;-61
2023/06/13 02:57:37;;;;;;;7.00;5.10;;;;;;;;;;5010351;28;20066;-62
2023/06/13 03:00:09;;;;;;;7.35;5.38;;;;;;;;;;5005457;28;20034;-61
2023/06/13 03:02:37;;;;;;;8.32;5.70;;;;;;;;;;5004951;28;20042;-60
2023/06/13 03:05:08;;;;;;;8.13;5.50;;;;;;;;;;5008467;28;20034;-61
2023/06/13 03:07:34;;;;;;;8.07;5.03;;;;;;;;;;4988197;28;20148;-61
2023/06/13 03:10:04;;;;;;;8.57;5.10;;;;;;;;;;5007763;28;20038;-61
2023/06/13 03:12:36;;;;;;;8.43;4.70;;;;;;;;;;4988697;28;20042;-61
2023/06/13 03:15:03;;;;;;;9.68;4.90;;;;;;;;;;5010966;28;20045;-61
2023/06/13 03:17:29;;;;;;;7.05;4.85;;;;;;;;;;5007233;28;20046;-61
2023/06/13 03:19:55;;;;;;;8.68;5.07;;;;;;;;;;5014809;28;20038;-61
2023/06/13 03:22:22;;;;;;;8.98;4.88;;;;;;;;;;5006471;28;20033;-61
2023/06/13 03:24:48;;;;;;;8.23;4.82;;;;;;;;;;5010719;28;20050;-61
2023/06/13 03:27:14;;;;;;;11.30;4.60;;;;;;;;;;5006854;28;20033;-61
2023/06/13 03:29:44;;;;;;;6.90;4.95;;;;;;;;;;5010041;28;20057;-60
2023/06/13 03:32:12;;;;;;;6.60;4.80;;;;;;;;;;4993309;28;20045;-61
2023/06/13 03:34:39;;;;;;;9.00;5.20;;;;;;;;;;5002433;28;20045;-61
2023/06/13 03:37:08;;;;;;;6.47;4.78;;;;;;;;;;5006775;28;20403;-61
2023/06/13 03:39:37;;;;;;;8.77;5.28;;;;;;;;;;5011386;28;20040;-61
2023/06/13 03:42:03;;;;;;;10.00;4.88;;;;;;;;;;5003678;28;20042;-62
2023/06/13 03:44:30;;;;;;;11.80;5.30;;;;;;;;;;5009423;28;20036;-61
2023/06/13 03:46:57;;;;;;;9.13;5.40;;;;;;;;;;5002254;28;20395;-61
2023/06/13 03:49:24;;;;;;;9.80;5.00;;;;;;;;;;5011045;28;20034;-61
2023/06/13 03:51:51;;;;;;;6.68;5.05;;;;;;;;;;5010006;28;20386;-61
2023/06/13 03:54:20;;;;;;;9.85;5.13;;;;;;;;;;5003440;28;20045;-62
2023/06/13 03:56:46;;;;;;;9.30;5.40;;;;;;;;;;5010780;28;20048;-61
2023/06/13 03:59:12;;;;;;;10.38;4.63;;;;;;;;;;5010590;28;20041;-61
2023/06/13 04:01:41;;;;;;;9.68;5.18;;;;;;;;;;5009665;28;20034;-62
2023/06/13 04:04:11;;;;;;;7.70;4.75;;;;;;;;;;5006140;28;20035;-62
2023/06/13 04:06:37;;;;;;;7.85;4.70;;;;;;;;;;5000190;28;20422;-61
2023/06/13 04:09:06;;;;;;;10.55;5.45;;;;;;;;;;5011388;28;20045;-60
2023/06/13 04:11:33;;;;;;;7.35;5.07;;;;;;;;;;5007280;28;20045;-61
2023/06/13 04:14:00;;;;;;;5.75;4.20;;;;;;;;;;5006259;28;20053;-61
2023/06/13 04:16:27;;;;;;;7.72;4.88;;;;;;;;;;5010202;28;20042;-61
2023/06/13 04:18:57;;;;;;;8.18;4.90;;;;;;;;;;5006324;28;20045;-62
2023/06/13 04:21:25;;;;;;;8.60;4.93;;;;;;;;;;5009591;28;20410;-61
2023/06/13 04:23:52;;;;;;;9.45;4.65;;;;;;;;;;5000788;28;20045;-62
2023/06/13 04:26:20;;;;;;;8.27;4.57;;;;;;;;;;5009747;28;20034;-61
2023/06/13 04:28:50;;;;;;;7.43;4.80;;;;;;;;;;4988119;28;20038;-61
2023/06/13 04:31:17;;;;;;;11.23;4.93;;;;;;;;;;5004896;28;20498;-61
2023/06/13 04:33:46;;;;;;;8.10;4.70;;;;;;;;;;5008680;28;20045;-61
2023/06/13 04:36:12;;;;;;;14.98;7.60;;;;;;;;;;5013812;28;20060;-62
2023/06/13 04:38:39;;;;;;;11.43;5.35;;;;;;;;;;5014989;28;20034;-61
2023/06/13 04:41:16;;;;;;;11.02;5.00;;;;;;;;;;5009408;28;20057;-61
2023/06/13 04:43:43;;;;;;;9.77;4.25;;;;;;;;;;5017147;28;20052;-62
2023/06/13 04:46:09;;;;;;;6.43;4.45;;;;;;;;;;5010235;28;20037;-64
2023/06/13 04:48:36;;;;;;;6.80;4.80;;;;;;;;;;5011854;28;20041;-62
2023/06/13 04:51:03;;;;;;;6.70;4.38;;;;;;;;;;5010324;28;20038;-61
2023/06/13 04:53:30;;;;;;;8.13;4.72;;;;;;;;;;5005832;28;20048;-61
2023/06/13 04:56:00;;;;;;;5.57;4.13;;;;;;;;;;5007185;28;20415;-61
2023/06/13 04:58:26;;;;;;;7.13;4.18;;;;;;;;;;5009828;28;20029;-62
2023/06/13 05:00:53;;;;;;;8.10;4.28;;;;;;;;;;5010800;28;20057;-63
2023/06/13 05:03:20;;;;;;;5.50;4.45;;;;;;;;;;5006676;28;20503;-62
2023/06/13 05:05:46;;;;;;;6.05;4.00;;;;;;;;;;5004679;28;20034;-62
2023/06/13 05:08:14;;;;;;;7.82;4.15;;;;;;;;;;5010252;28;20049;-61
2023/06/13 05:10:43;;;;;;;7.38;4.35;;;;;;;;;;5004312;28;20060;-61
2023/06/13 05:13:11;;;;;;;8.73;4.45;;;;;;;;;;4999390;28;20034;-63
2023/06/13 05:15:42;;;;;;;8.27;4.35;;;;;;;;;;5003666;28;20042;-62
2023/06/13 05:18:12;;;;;;;8.90;4.03;;;;;;;;;;5002001;28;20595;-61
2023/06/13 05:20:42;;;;;;;9.05;4.15;;;;;;;;;;5004203;28;20049;-61
2023/06/13 05:23:08;;;;;;;7.68;4.10;;;;;;;;;;4994533;28;20034;-61
2023/06/13 05:25:35;;;;;;;6.10;4.18;;;;;;;;;;5000791;28;20038;-61
2023/06/13 05:28:02;;;;;;;5.70;3.95;;;;;;;;;;5004944;28;20034;-61
2023/06/13 05:30:28;;;;;;;5.97;4.10;;;;;;;;;;5008336;28;20048;-60
2023/06/13 05:32:55;;;;;;;9.50;4.47;;;;;;;;;;5007307;28;20038;-61
2023/06/13 05:35:21;;;;;;;6.40;3.85;;;;;;;;;;5000151;28;20412;-61
2023/06/13 05:37:50;;;;;;;8.98;4.60;;;;;;;;;;5007537;28;20056;-61
2023/06/13 05:40:16;;;;;;;9.25;4.13;;;;;;;;;;5001768;28;20482;-61
2023/06/13 05:42:42;;;;;;;8.40;4.03;;;;;;;;;;5005133;28;20045;-60
2023/06/13 05:45:09;;;;;;;7.97;4.40;;;;;;;;;;5003905;28;20410;-60
2023/06/13 05:47:35;;;;;;;7.75;3.80;;;;;;;;;;4999105;28;20060;-60
2023/06/13 05:50:03;;;;;;;5.88;3.75;;;;;;;;;;4998372;28;20022;-60
2023/06/13 05:52:30;;;;;;;5.18;3.85;;;;;;;;;;5003931;28;20458;-60
2023/06/13 05:54:56;;;;;;;6.63;4.38;;;;;;;;;;4996324;28;20538;-61
2023/06/13 05:57:24;;;;;;;11.23;4.10;;;;;;;;;;4996532;28;20034;-60
2023/06/13 05:59:50;;;;;;;9.90;3.95;;;;;;;;;;5000818;28;20050;-60
2023/06/13 06:02:16;;;;;;;10.63;3.95;;;;;;;;;;5007780;28;20046;-61
2023/06/13 06:04:42;;;;;;;9.85;4.20;;;;;;;;;;5010614;28;20029;-61
2023/06/13 06:07:08;;;;;;;11.43;4.60;;;;;;;;;;5006077;28;20029;-61
2023/06/13 06:09:35;;;;;;;7.32;3.40;;;;;;;;;;5013547;28;20042;-61
2023/06/13 06:12:01;;;;;;;7.50;4.30;;;;;;;;;;5003116;28;20057;-62
2023/06/13 06:14:27;;;;;;;9.00;3.50;;;;;;;;;;5003151;28;20037;-61
2023/06/13 06:16:55;;;;;;;10.60;3.63;;;;;;;;;;5012112;28;20049;-62
2023/06/13 06:19:21;;;;;;;8.80;3.80;;;;;;;;;;5011381;28;20034;-61
2023/06/13 06:21:47;;;;;;;12.95;4.70;;;;;;;;;;5018821;28;20052;-62
2023/06/13 06:24:13;;;;;;;10.15;3.95;;;;;;;;;;5011902;28;20033;-61
2023/06/13 06:26:39;;;;;;;5.38;3.70;;;;;;;;;;5005996;28;20514;-61
2023/06/13 06:29:06;;;;;;;8.15;3.67;;;;;;;;;;5010394;28;20030;-61
2023/06/13 06:31:32;;;;;;;7.70;3.92;;;;;;;;;;4994906;28;20038;-61
2023/06/13 06:33:58;;;;;;;6.95;3.80;;;;;;;;;;5008485;28;20040;-62
2023/06/13 06:36:24;;;;;;;8.85;3.80;;;;;;;;;;5010335;28;20030;-61
2023/06/13 06:38:51;;;;;;;7.88;3.70;;;;;;;;;;5010175;28;20464;-61
2023/06/13 06:41:18;;;;;;;12.82;4.10;;;;;;;;;;5017859;28;20408;-61
2023/06/13 06:43:44;;;;;;;8.38;3.63;;;;;;;;;;5014980;28;20046;-60
2023/06/13 06:46:11;;;;;;;7.28;3.25;;;;;;;;;;5014702;28;20427;-61
2023/06/13 06:48:38;;;;;;;7.10;3.65;;;;;;;;;;5010877;28;20483;-61
2023/06/13 06:51:04;;;;;;;8.55;4.55;;;;;;;;;;5001927;28;20030;-60
2023/06/13 06:53:31;;;;;;;8.75;3.83;;;;;;;;;;5002324;28;20105;-61
2023/06/13 06:55:58;;;;;;;11.30;4.07;;;;;;;;;;4999528;28;20038;-62
2023/06/13 06:58:24;;;;;;;7.28;3.60;;;;;;;;;;5001992;28;20038;-61
2023/06/13 07:00:50;;;;;;;9.93;3.75;;;;;;;;;;5006206;28;20300;-62
2023/06/13 07:03:16;;;;;;;7.72;3.90;;;;;;;;;;5004016;28;20042;-61
2023/06/13 07:05:42;;;;;;;6.72;4.10;;;;;;;;;;5005248;28;20041;-61
2023/06/13 07:08:08;;;;;;;6.20;3.95;;;;;;;;;;5007754;28;20045;-62
2023/06/13 07:10:35;;;;;;;6.00;4.05;;;;;;;;;;5013941;28;20040;-62
2023/06/13 07:13:01;;;;;;;6.85;3.72;;;;;;;;;;4977313;28;20045;-61
2023/06/13 07:15:27;;;;;;;8.00;4.15;;;;;;;;;;5001633;28;20038;-62
2023/06/13 07:17:53;;;;;;;4.78;3.70;;;;;;;;;;5002830;28;20118;-62
2023/06/13 07:20:20;;;;;;;5.90;3.65;;;;;;;;;;5008071;28;20044;-61
2023/06/13 07:22:46;;;;;;;8.23;3.72;;;;;;;;;;5007224;28;20026;-61
2023/06/13 07:25:13;;;;;;;5.50;3.53;;;;;;;;;;5001629;28;20035;-62
2023/06/13 07:27:39;;;;;;;4.50;3.40;;;;;;;;;;5008748;28;20045;-62
2023/06/13 07:30:06;;;;;;;7.05;3.60;;;;;;;;;;4995313;28;20045;-62
2023/06/13 07:32:32;;;;;;;7.05;3.40;;;;;;;;;;4999460;28;20049;-61
2023/06/13 07:34:58;;;;;;;6.70;3.70;;;;;;;;;;5002078;28;20034;-61
2023/06/13 07:37:24;;;;;;;4.90;3.53;;;;;;;;;;5014003;28;20045;-62
2023/06/13 07:39:50;;;;;;;5.70;3.95;;;;;;;;;;5003505;28;20029;-61
2023/06/13 07:42:17;;;;;;;5.72;3.85;;;;;;;;;;4999060;28;20037;-62
2023/06/13 07:44:43;;;;;;;10.88;4.18;;;;;;;;;;5011837;28;20037;-61
2023/06/13 07:47:10;;;;;;;7.15;3.85;;;;;;;;;;4998698;28;20041;-61
2023/06/13 07:49:36;;;;;;;8.30;4.53;;;;;;;;;;5002489;28;20030;-61
2023/06/13 07:52:02;;;;;;;4.75;3.45;;;;;;;;;;5008695;28;20033;-62
2023/06/13 07:54:30;;;;;;;7.60;4.15;;;;;;;;;;5010427;28;20034;-62
2023/06/13 07:56:57;;;;;;;5.85;3.47;;;;;;;;;;5002216;28;20061;-62
2023/06/13 07:59:24;;;;;;;4.72;3.10;;;;;;;;;;5003416;28;20050;-62
2023/06/13 08:01:50;;;;;;;7.43;3.97;;;;;;;;;;5006097;28;20037;-61
2023/06/13 08:04:17;;;;;;;6.28;3.42;;;;;;;;;;4994189;28;20030;-60
2023/06/13 08:06:43;;;;;;;8.18;3.78;;;;;;;;;;5005629;28;20042;-62
2023/06/13 08:09:11;;;;;;;8.05;3.80;;;;;;;;;;5012380;28;20034;-62
2023/06/13 08:11:38;;;;;;;5.22;3.70;;;;;;;;;;5003628;28;20037;-61
2023/06/13 08:14:07;;;;;;;6.65;3.70;;;;;;;;;;5003134;28;20081;-61
2023/06/13 08:16:33;;;;;;;;;;;;;;;;;;5012343;28;20041;-62
2023/06/13 08:19:00;;;;;;;4.78;3.42;;;;;;;;;;5000511;28;19928;-61
2023/06/13 08:21:26;;;;;;;6.72;3.70;;;;;;;;;;5002217;28;20423;-62
2023/06/13 08:23:52;;;;;;;7.68;3.47;;;;;;;;;;4992459;28;20491;-61
2023/06/13 08:26:18;;;;;;;6.90;3.75;;;;;;;;;;5001050;28;20438;-61
2023/06/13 08:28:46;;;;;;;9.93;3.90;;;;;;;;;;5005603;28;20045;-60
2023/06/13 08:31:13;;;;;;;7.78;4.30;;;;;;;;;;4996478;28;20046;-61
2023/06/13 08:33:39;;;;;;;10.88;3.97;;;;;;;;;;4992371;28;20230;-61
2023/06/13 08:36:05;;;;;;;6.90;3.40;;;;;;;;;;5004815;28;20053;-62
2023/06/13 08:38:32;;;;;;;6.57;3.50;;;;;;;;;;4997427;28;20122;-61
2023/06/13 08:40:59;;;;;;;6.53;3.75;;;;;;;;;;5000224;28;20149;-62
2023/06/13 08:43:25;;;;;;;5.70;3.85;;;;;;;;;;4996766;28;20041;-63
2023/06/13 08:45:51;;;;;;;5.47;3.97;;;;;;;;;;5006243;28;20037;-61
2023/06/13 08:48:17;;;;;;;5.80;3.78;;;;;;;;;;5006125;28;20059;-62
2023/06/13 08:50:44;;;;;;;7.90;3.60;;;;;;;;;;5003023;28;20045;-62
2023/06/13 08:53:10;;;;;;;7.20;3.72;;;;;;;;;;5003992;28;20042;-62
2023/06/13 08:55:40;;;;;;;4.53;3.60;;;;;;;;;;5005247;28;20037;-62
2023/06/13 08:58:09;;;;;;;8.05;4.22;;;;;;;;;;5004674;28;20049;-61
2023/06/13 09:00:35;;;;;;;7.32;4.03;;;;;;;;;;5000348;28;20042;-62
2023/06/13 09:03:03;;;;;;;6.68;3.60;;;;;;;;;;5007698;28;20037;-62
2023/06/13 09:05:30;;;;;;;6.57;4.10;;;;;;;;;;5004865;28;20037;-61
2023/06/13 09:07:58;;;;;;;5.40;3.90;;;;;;;;;;4999451;28;20440;-61
2023/06/13 09:10:25;;;;;;;5.27;3.50;;;;;;;;;;5008407;28;20041;-60
2023/06/13 09:12:52;;;;;;;4.70;3.20;;;;;;;;;;5005591;28;20407;-61
2023/06/13 09:15:19;;;;;;;5.30;3.47;;;;;;;;;;5000641;28;20049;-63
2023/06/13 09:17:45;;;;;;;7.22;3.50;;;;;;;;;;4996315;28;20053;-63
2023/06/13 09:20:11;;;;;;;5.25;3.38;;;;;;;;;;4994789;28;20542;-63
2023/06/13 09:22:38;;;;;;;7.88;4.68;;;;;;;;;;4996271;28;20542;-63
2023/06/13 09:25:07;;;;;;;7.90;4.00;;;;;;;;;;4995273;28;20097;-62
2023/06/13 09:27:34;;;;;;;7.13;3.92;;;;;;;;;;5004875;28;20522;-61
2023/06/13 09:30:01;;;;;;;6.38;3.47;;;;;;;;;;5007240;28;20040;-63
2023/06/13 09:32:27;;;;;;;5.72;3.67;;;;;;;;;;4999895;28;20041;-63
2023/06/13 09:34:53;;;;;;;8.95;3.80;;;;;;;;;;4996306;28;20499;-62
2023/06/13 09:37:20;;;;;;;4.53;3.50;;;;;;;;;;5009871;28;20036;-63
2023/06/13 09:39:55;;;;;;;7.90;3.65;;;;;;;;;;4992446;28;20094;-62
2023/06/13 09:42:22;;;;;;;5.68;3.55;;;;;;;;;;4997809;28;20026;-63
2023/06/13 09:44:50;;;;;;;8.45;3.50;;;;;;;;;;5007887;28;20034;-63
2023/06/13 09:47:23;;;;;;;4.60;3.50;;;;;;;;;;4994915;28;20038;-63
2023/06/13 09:49:56;;;;;;;7.82;3.50;;;;;;;;;;5000637;28;20037;-64
2023/06/13 09:52:24;;;;;;;5.65;3.53;;;;;;;;;;4994494;28;20038;-64
2023/06/13 09:54:51;;;;;;;7.38;3.70;;;;;;;;;;5008926;28;20045;-62
2023/06/13 09:57:19;;;;;;;4.55;3.35;;;;;;;;;;5013378;28;20483;-62
2023/06/13 09:59:47;;;;;;;6.68;3.65;;;;;;;;;;5004786;28;20061;-63
2023/06/13 10:02:15;;;;;;;6.53;3.50;;;;;;;;;;5001760;28;20034;-63
2023/06/13 10:04:42;;;;;;;6.70;3.53;;;;;;;;;;5010207;28;20054;-62
2023/06/13 10:07:09;;;;;;;6.53;3.45;;;;;;;;;;5014986;28;20044;-64
2023/06/13 10:09:35;;;;;;;6.25;3.53;;;;;;;;;;5007749;28;20025;-64
2023/06/13 10:12:03;;;;;;;4.32;3.42;;;;;;;;;;5003677;28;20049;-64
2023/06/13 10:14:33;;;;;;;7.07;3.63;;;;;;;;;;5008532;28;20073;-64
2023/06/13 10:17:11;;;;;;;5.35;3.42;;;;;;;;;;5004634;28;20052;-64
2023/06/13 10:19:39;;;;;;;7.32;3.70;;;;;;;;;;5001675;28;20045;-64
2023/06/13 10:22:06;;;;;;;5.57;3.70;;;;;;;;;;5003928;28;20042;-63
2023/06/13 10:24:39;;;;;;;7.65;3.60;;;;;;;;;;5003446;28;20045;-64
2023/06/13 10:27:09;;;;;;;6.10;3.72;;;;;;;;;;5008536;28;20045;-63
2023/06/13 10:29:48;;;;;;;6.22;3.53;;;;;;;;;;5008064;28;20038;-64
2023/06/13 10:32:45;;;;;;;4.75;3.42;;;;;;;;;;4998816;28;20105;-63
2023/06/13 10:35:33;;;;;;;4.80;3.70;;;;;;;;;;5000693;28;20046;-64
2023/06/13 10:38:33;;;;;;;4.15;3.72;;;;;;;;;;5004875;28;20034;-64
2023/06/13 10:41:29;;;;;;;4.13;3.70;;;;;;;;;;5013686;28;20065;-64
2023/06/13 10:44:09;;;;;;;5.65;3.90;;;;;;;;;;5015796;28;20050;-64
2023/06/13 10:46:36;;;;;;;4.93;3.80;;;;;;;;;;5003795;28;20060;-64
2023/06/13 10:49:03;;;;;;;6.75;3.70;;;;;;;;;;5005194;28;20030;-64
2023/06/13 10:51:30;;;;;;;5.00;3.80;;;;;;;;;;4992707;28;20504;-63
2023/06/13 10:54:02;;;;;;;6.95;3.50;;;;;;;;;;5008194;28;20049;-64
2023/06/13 10:56:30;;;;;;;3.97;3.47;;;;;;;;;;5005958;28;20052;-64
2023/06/13 10:59:05;;;;;;;5.80;3.60;;;;;;;;;;5003011;28;20624;-64
2023/06/13 11:01:36;;;;;;;6.50;3.47;;;;;;;;;;5008190;28;20035;-64
2023/06/13 11:04:11;;;;;;;5.28;3.38;;;;;;;;;;5015444;28;20050;-62
2023/06/13 11:06:38;;;;;;;4.57;3.63;;;;;;;;;;5009353;28;20431;-62
2023/06/13 11:09:37;;;;;;;4.53;3.60;;;;;;;;;;5013538;28;20061;-63
2023/06/13 11:12:06;;;;;;;12.50;3.80;;;;;;;;;;4990658;28;20061;-64
2023/06/13 11:14:37;;;;;;;4.75;3.58;;;;;;;;;;5004395;28;20037;-64
2023/06/13 11:17:05;;;;;;;5.25;3.90;;;;;;;;;;5001487;28;20057;-65
2023/06/13 11:19:33;;;;;;;4.60;3.83;;;;;;;;;;5007751;28;20057;-64
2023/06/13 11:22:00;;;;;;;;;;;;;;;;;;5010037;28;20048;-65
2023/06/13 11:24:27;;;;;;;7.40;3.75;;;;;;;;;;5002872;28;19914;-65
2023/06/13 11:26:55;;;;;;;5.65;3.63;;;;;;;;;;5006451;28;20061;-64
2023/06/13 11:29:22;;;;;;;6.05;3.83;;;;;;;;;;5005836;28;20030;-64
2023/06/13 11:31:53;;;;;;;6.60;3.60;;;;;;;;;;5010998;28;20041;-63
2023/06/13 11:34:25;;;;;;;7.93;3.90;;;;;;;;;;5009584;28;20550;-62
2023/06/13 11:36:59;;;;;;;6.05;3.70;;;;;;;;;;5010108;28;20041;-63
2023/06/13 11:39:41;;;;;;;9.73;3.78;;;;;;;;;;5009267;28;20412;-63
2023/06/13 11:42:08;;;;;;;6.47;3.63;;;;;;;;;;5003281;28;20050;-62
2023/06/13 11:44:35;;;;;;;9.07;3.78;;;;;;;;;;5007070;28;20035;-62
2023/06/13 11:47:01;;;;;;;4.35;3.80;;;;;;;;;;5004781;28;20049;-62
2023/06/13 11:49:27;;;;;;;6.90;4.00;;;;;;;;;;5011531;28;20419;-61
2023/06/13 11:51:53;;;;;;;4.55;3.90;;;;;;;;;;5004094;28;20045;-62
2023/06/13 11:54:28;;;;;;;5.88;3.80;;;;;;;;;;5009727;28;20057;-62
2023/06/13 11:56:54;;;;;;;8.75;3.83;;;;;;;;;;4997590;28;20042;-63
2023/06/13 11:59:22;;;;;;;4.80;3.60;;;;;;;;;;5002668;28;20546;-62
2023/06/13 12:01:52;;;;;;;6.67;4.03;;;;;;;;;;4994847;28;20406;-61
2023/06/13 12:04:23;;;;;;;8.60;3.90;;;;;;;;;;5005492;28;20400;-61
2023/06/13 12:06:53;;;;;;;6.85;4.03;;;;;;;;;;5002558;28;20033;-61
2023/06/13 12:09:19;;;;;;;9.52;3.92;;;;;;;;;;5008013;28;20045;-60
2023/06/13 12:11:46;;;;;;;7.22;4.28;;;;;;;;;;5004002;28;20042;-61
2023/06/13 12:14:13;;;;;;;4.10;3.63;;;;;;;;;;4999504;28;20049;-61
2023/06/13 12:16:40;;;;;;;8.48;4.15;;;;;;;;;;5000443;28;20041;-61
2023/06/13 12:19:09;;;;;;;8.25;3.92;;;;;;;;;;5011231;28;20049;-64
2023/06/13 12:21:37;;;;;;;4.25;3.78;;;;;;;;;;5000855;28;20861;-62
2023/06/13 12:24:06;;;;;;;8.52;3.80;;;;;;;;;;5004074;28;20030;-62
2023/06/13 12:26:34;;;;;;;6.00;4.03;;;;;;;;;;5005059;28;20061;-60
2023/06/13 12:29:04;;;;;;;5.53;3.70;;;;;;;;;;5003916;28;20763;-61
2023/06/13 12:31:38;;;;;;;6.82;3.70;;;;;;;;;;5002467;28;20045;-61
2023/06/13 12:34:13;;;;;;;7.50;4.20;;;;;;;;;;5012588;28;20045;-62
2023/06/13 12:36:44;;;;;;;8.00;4.05;;;;;;;;;;5007499;28;20030;-62
2023/06/13 12:39:12;;;;;;;8.82;3.78;;;;;;;;;;5007561;28;20050;-62
2023/06/13 12:41:42;;;;;;;7.15;4.35;;;;;;;;;;5002085;28;20046;-63
2023/06/13 12:44:09;;;;;;;4.93;3.80;;;;;;;;;;5016559;28;20034;-64
2023/06/13 12:46:38;;;;;;;6.65;3.92;;;;;;;;;;5009863;28;20037;-63
2023/06/13 12:49:12;;;;;;;6.80;3.97;;;;;;;;;;5002238;28;20506;-63
2023/06/13 12:51:43;;;;;;;6.03;3.80;;;;;;;;;;5006774;28;20034;-63
2023/06/13 12:54:17;;;;;;;7.32;4.20;;;;;;;;;;5013202;28;20519;-62
2023/06/13 12:56:59;;;;;;;6.80;3.78;;;;;;;;;;5007433;28;20503;-63
2023/06/13 12:59:33;;;;;;;5.68;3.92;;;;;;;;;;5005078;28;20053;-64
2023/06/13 13:02:01;;;;;;;4.50;3.80;;;;;;;;;;5001934;28;20420;-62
2023/06/13 13:04:33;;;;;;;5.05;4.05;;;;;;;;;;5011105;28;20025;-63
2023/06/13 13:06:59;;;;;;;4.18;3.67;;;;;;;;;;5004230;28;20049;-63
2023/06/13 13:09:27;;;;;;;5.00;4.10;;;;;;;;;;5007252;28;20042;-64
2023/06/13 13:11:55;;;;;;;6.70;4.05;;;;;;;;;;4999350;28;20046;-63
2023/06/13 13:14:23;;;;;;;5.93;3.88;;;;;;;;;;5004011;28;20042;-63
2023/06/13 13:16:51;;;;;;;8.00;4.30;;;;;;;;;;4978701;28;20114;-63
2023/06/13 13:19:18;;;;;;;5.15;3.88;;;;;;;;;;5004378;28;20049;-64
2023/06/13 13:21:44;;;;;;;5.55;3.95;;;;;;;;;;4998914;28;20045;-63
2023/06/13 13:24:12;;;;;;;6.63;4.28;;;;;;;;;;5005573;28;20058;-63
2023/06/13 13:26:38;;;;;;;6.47;3.85;;;;;;;;;;5008590;28;20052;-63
2023/06/13 13:29:05;;;;;;;6.57;4.00;;;;;;;;;;5017181;28;20050;-62
2023/06/13 13:31:31;;;;;;;5.80;4.13;;;;;;;;;;5004291;28;20031;-63
2023/06/13 13:33:57;;;;;;;5.10;3.72;;;;;;;;;;5010519;28;20041;-60
2023/06/13 13:36:23;;;;;;;6.13;4.10;;;;;;;;;;4997399;28;20032;-61
2023/06/13 13:38:49;;;;;;;5.60;3.90;;;;;;;;;;5003323;28;20030;-62
2023/06/13 13:41:16;;;;;;;6.18;3.80;;;;;;;;;;5008479;28;20042;-60
2023/06/13 13:43:42;;;;;;;7.03;4.00;;;;;;;;;;5013488;28;20095;-65
2023/06/13 13:46:08;;;;;;;5.97;3.90;;;;;;;;;;5008282;28;20038;-62
2023/06/13 13:48:35;;;;;;;6.85;3.90;;;;;;;;;;5000580;28;20045;-62
2023/06/13 13:51:01;;;;;;;9.05;4.10;;;;;;;;;;5008671;28;20538;-64
2023/06/13 13:53:29;;;;;;;6.18;3.85;;;;;;;;;;4998715;28;20034;-62
2023/06/13 13:55:55;;;;;;;8.65;4.18;;;;;;;;;;5003830;28;20053;-63
2023/06/13 13:58:21;;;;;;;10.13;4.15;;;;;;;;;;5002566;28;20042;-63
2023/06/13 14:00:48;;;;;;;6.28;4.20;;;;;;;;;;5005492;28;20038;-62
2023/06/13 14:03:14;;;;;;;5.18;4.00;;;;;;;;;;5006784;28;20562;-64
2023/06/13 14:05:40;;;;;;;4.28;3.88;;;;;;;;;;5008875;28;20454;-64
2023/06/13 14:08:06;;;;;;;8.07;4.22;;;;;;;;;;5001867;28;20045;-64
2023/06/13 14:10:32;;;;;;;6.93;3.88;;;;;;;;;;5010722;28;20507;-64
2023/06/13 14:13:00;;;;;;;5.43;4.30;;;;;;;;;;5006580;28;20035;-64
2023/06/13 14:15:26;;;;;;;4.03;3.63;;;;;;;;;;5013377;28;20057;-63
2023/06/13 14:17:52;;;;;;;6.65;4.10;;;;;;;;;;4998246;28;20399;-64
2023/06/13 14:20:19;;;;;;;6.45;3.60;;;;;;;;;;4998325;28;20038;-63
2023/06/13 14:22:45;;;;;;;7.13;3.88;;;;;;;;;;5000758;28;20432;-63
2023/06/13 14:25:11;;;;;;;5.57;3.97;;;;;;;;;;4993103;28;21923;-63
2023/06/13 14:27:37;;;;;;;6.00;3.83;;;;;;;;;;4990527;28;20046;-64
2023/06/13 14:30:05;;;;;;;8.05;3.95;;;;;;;;;;5001717;28;20404;-64
2023/06/13 14:32:31;;;;;;;5.20;4.00;;;;;;;;;;5000697;28;20049;-64
2023/06/13 14:34:57;;;;;;;7.13;4.00;;;;;;;;;;5010954;28;20044;-64
2023/06/13 14:37:25;;;;;;;4.82;4.32;;;;;;;;;;4992588;28;20038;-64
2023/06/13 14:39:51;;;;;;;4.80;3.77;;;;;;;;;;5011003;28;20057;-63
2023/06/13 14:42:18;;;;;;;8.80;3.80;;;;;;;;;;5012129;28;20053;-64
2023/06/13 14:44:45;;;;;;;4.22;3.63;;;;;;;;;;5016632;28;20045;-64
2023/06/13 14:47:14;;;;;;;5.20;4.03;;;;;;;;;;5028262;28;20038;-64